sensor_id;sensor_type;location;lat;lon;timestamp;temperature;humidity
10089;DHT22;51898;49.864;8.550;2023-04-24T00:02:32;10.70;90.40
10089;DHT22;51898;49.864;8.550;2023-04-24T00:05:34;10.70;90.60
10089;DHT22;51898;49.864;8.550;2023-04-24T00:08:36;10.70;90.60
10089;DHT22;51898;49.864;8.550;2023-04-24T00:11:37;10.70;90.50
10089;DHT22;51898;49.864;8.550;2023-04-24T00:14:39;10.70;90.30
10089;DHT22;51898;49.864;8.550;2023-04-24T00:17:41;10.80;89.70
10089;DHT22;51898;49.864;8.550;2023-04-24T00:20:43;10.80;89.30
10089;DHT22;51898;49.864;8.550;2023-04-24T00:23:45;10.90;88.90
10089;DHT22;51898;49.864;8.550;2023-04-24T00:26:47;10.90;88.50
10089;DHT22;51898;49.864;8.550;2023-04-24T00:29:49;10.90;88.20
10089;DHT22;51898;49.864;8.550;2023-04-24T00:32:50;10.90;88.00
10089;DHT22;51898;49.864;8.550;2023-04-24T00:35:52;10.90;88.00
10089;DHT22;51898;49.864;8.550;2023-04-24T00:38:54;10.90;87.70
10089;DHT22;51898;49.864;8.550;2023-04-24T00:41:56;11.00;87.40
10089;DHT22;51898;49.864;8.550;2023-04-24T00:44:58;10.90;87.30
10089;DHT22;51898;49.864;8.550;2023-04-24T00:48:01;10.90;87.20
10089;DHT22;51898;49.864;8.550;2023-04-24T00:51:03;10.90;87.50
10089;DHT22;51898;49.864;8.550;2023-04-24T00:54:05;10.90;87.50
10089;DHT22;51898;49.864;8.550;2023-04-24T00:57:07;10.90;87.70
10089;DHT22;51898;49.864;8.550;2023-04-24T01:00:09;10.90;87.80
10089;DHT22;51898;49.864;8.550;2023-04-24T01:03:14;10.90;88.10
10089;DHT22;51898;49.864;8.550;2023-04-24T01:06:17;10.90;88.50
10089;DHT22;51898;49.864;8.550;2023-04-24T01:09:21;10.90;88.70
10089;DHT22;51898;49.864;8.550;2023-04-24T01:12:23;10.90;88.70
10089;DHT22;51898;49.864;8.550;2023-04-24T01:15:24;10.90;88.50
10089;DHT22;51898;49.864;8.550;2023-04-24T01:18:27;10.90;88.40
10089;DHT22;51898;49.864;8.550;2023-04-24T01:21:30;10.90;88.30
10089;DHT22;51898;49.864;8.550;2023-04-24T01:24:34;10.80;88.30
10089;DHT22;51898;49.864;8.550;2023-04-24T01:27:36;10.80;88.20
10089;DHT22;51898;49.864;8.550;2023-04-24T01:30:37;10.80;88.20
10089;DHT22;51898;49.864;8.550;2023-04-24T01:33:40;10.80;88.40
10089;DHT22;51898;49.864;8.550;2023-04-24T01:36:43;10.80;88.20
10089;DHT22;51898;49.864;8.550;2023-04-24T01:39:47;10.80;88.10
10089;DHT22;51898;49.864;8.550;2023-04-24T01:42:48;10.80;87.90
10089;DHT22;51898;49.864;8.550;2023-04-24T01:45:50;10.80;87.80
10089;DHT22;51898;49.864;8.550;2023-04-24T01:48:52;10.90;87.70
10089;DHT22;51898;49.864;8.550;2023-04-24T01:51:53;10.90;88.00
10089;DHT22;51898;49.864;8.550;2023-04-24T01:54:55;10.80;88.40
10089;DHT22;51898;49.864;8.550;2023-04-24T01:57:57;10.80;88.80
10089;DHT22;51898;49.864;8.550;2023-04-24T02:01:00;10.80;88.80
10089;DHT22;51898;49.864;8.550;2023-04-24T02:04:04;10.80;88.80
10089;DHT22;51898;49.864;8.550;2023-04-24T02:07:06;10.80;88.40
10089;DHT22;51898;49.864;8.550;2023-04-24T02:10:08;10.80;87.90
10089;DHT22;51898;49.864;8.550;2023-04-24T02:13:10;10.90;87.40
10089;DHT22;51898;49.864;8.550;2023-04-24T02:16:12;11.00;87.30
10089;DHT22;51898;49.864;8.550;2023-04-24T02:19:13;11.00;87.00
10089;DHT22;51898;49.864;8.550;2023-04-24T02:22:15;11.10;86.70
10089;DHT22;51898;49.864;8.550;2023-04-24T02:25:17;11.10;86.60
10089;DHT22;51898;49.864;8.550;2023-04-24T02:28:19;11.10;86.60
10089;DHT22;51898;49.864;8.550;2023-04-24T02:31:21;11.20;86.70
10089;DHT22;51898;49.864;8.550;2023-04-24T02:34:22;11.20;86.90
10089;DHT22;51898;49.864;8.550;2023-04-24T02:37:24;11.20;86.60
10089;DHT22;51898;49.864;8.550;2023-04-24T02:40:26;11.20;86.70
10089;DHT22;51898;49.864;8.550;2023-04-24T02:43:28;11.20;86.60
10089;DHT22;51898;49.864;8.550;2023-04-24T02:46:29;11.20;86.60
10089;DHT22;51898;49.864;8.550;2023-04-24T02:49:31;11.20;86.50
10089;DHT22;51898;49.864;8.550;2023-04-24T02:52:33;11.10;86.80
10089;DHT22;51898;49.864;8.550;2023-04-24T02:55:35;11.10;87.20
10089;DHT22;51898;49.864;8.550;2023-04-24T02:58:37;11.10;87.30
10089;DHT22;51898;49.864;8.550;2023-04-24T03:01:38;11.10;87.70
10089;DHT22;51898;49.864;8.550;2023-04-24T03:04:40;11.10;87.80
10089;DHT22;51898;49.864;8.550;2023-04-24T03:07:44;11.10;88.30
10089;DHT22;51898;49.864;8.550;2023-04-24T03:10:46;11.10;88.50
10089;DHT22;51898;49.864;8.550;2023-04-24T03:13:48;11.00;88.60
10089;DHT22;51898;49.864;8.550;2023-04-24T03:16:50;11.10;88.80
10089;DHT22;51898;49.864;8.550;2023-04-24T03:19:52;11.00;89.70
10089;DHT22;51898;49.864;8.550;2023-04-24T03:22:53;10.90;90.20
10089;DHT22;51898;49.864;8.550;2023-04-24T03:25:55;10.90;90.20
10089;DHT22;51898;49.864;8.550;2023-04-24T03:28:57;10.80;90.30
10089;DHT22;51898;49.864;8.550;2023-04-24T03:31:58;10.80;90.50
10089;DHT22;51898;49.864;8.550;2023-04-24T03:35:00;10.70;90.80
10089;DHT22;51898;49.864;8.550;2023-04-24T03:38:02;10.60;91.10
10089;DHT22;51898;49.864;8.550;2023-04-24T03:41:06;10.50;91.10
10089;DHT22;51898;49.864;8.550;2023-04-24T03:44:07;10.50;91.00
10089;DHT22;51898;49.864;8.550;2023-04-24T03:47:09;10.40;90.90
10089;DHT22;51898;49.864;8.550;2023-04-24T03:50:11;10.40;90.80
10089;DHT22;51898;49.864;8.550;2023-04-24T03:53:13;10.40;90.20
10089;DHT22;51898;49.864;8.550;2023-04-24T03:56:15;10.30;89.40
10089;DHT22;51898;49.864;8.550;2023-04-24T03:59:16;10.30;90.00
10089;DHT22;51898;49.864;8.550;2023-04-24T04:02:18;10.20;90.10
10089;DHT22;51898;49.864;8.550;2023-04-24T04:05:20;10.20;90.20
10089;DHT22;51898;49.864;8.550;2023-04-24T04:08:21;10.20;89.80
10089;DHT22;51898;49.864;8.550;2023-04-24T04:11:23;10.10;89.40
10089;DHT22;51898;49.864;8.550;2023-04-24T04:14:26;10.10;88.60
10089;DHT22;51898;49.864;8.550;2023-04-24T04:17:27;9.90;88.80
10089;DHT22;51898;49.864;8.550;2023-04-24T04:20:29;9.80;89.00
10089;DHT22;51898;49.864;8.550;2023-04-24T04:23:32;9.70;89.10
10089;DHT22;51898;49.864;8.550;2023-04-24T04:26:33;9.60;89.40
10089;DHT22;51898;49.864;8.550;2023-04-24T04:29:36;9.50;89.60
10089;DHT22;51898;49.864;8.550;2023-04-24T04:32:38;9.40;90.10
10089;DHT22;51898;49.864;8.550;2023-04-24T04:35:40;9.40;89.90
10089;DHT22;51898;49.864;8.550;2023-04-24T04:38:42;9.30;89.60
10089;DHT22;51898;49.864;8.550;2023-04-24T04:41:44;9.30;89.50
10089;DHT22;51898;49.864;8.550;2023-04-24T04:44:50;9.30;89.40
10089;DHT22;51898;49.864;8.550;2023-04-24T04:47:52;9.30;89.20
10089;DHT22;51898;49.864;8.550;2023-04-24T04:50:54;9.30;88.90
10089;DHT22;51898;49.864;8.550;2023-04-24T04:53:56;9.30;88.40
10089;DHT22;51898;49.864;8.550;2023-04-24T04:56:57;9.40;87.80
10089;DHT22;51898;49.864;8.550;2023-04-24T04:59:59;9.50;87.30
10089;DHT22;51898;49.864;8.550;2023-04-24T05:03:01;9.50;86.90
10089;DHT22;51898;49.864;8.550;2023-04-24T05:06:20;9.60;86.30
10089;DHT22;51898;49.864;8.550;2023-04-24T05:09:25;9.60;86.30
10089;DHT22;51898;49.864;8.550;2023-04-24T05:12:28;9.60;86.50
10089;DHT22;51898;49.864;8.550;2023-04-24T05:15:30;9.70;86.40
10089;DHT22;51898;49.864;8.550;2023-04-24T05:18:32;9.70;86.30
10089;DHT22;51898;49.864;8.550;2023-04-24T05:21:33;9.80;86.10
10089;DHT22;51898;49.864;8.550;2023-04-24T05:24:36;9.90;85.90
10089;DHT22;51898;49.864;8.550;2023-04-24T05:27:38;9.80;86.20
10089;DHT22;51898;49.864;8.550;2023-04-24T05:30:39;9.80;85.70
10089;DHT22;51898;49.864;8.550;2023-04-24T05:33:41;9.70;85.50
10089;DHT22;51898;49.864;8.550;2023-04-24T05:36:43;9.70;84.10
10089;DHT22;51898;49.864;8.550;2023-04-24T05:39:45;9.90;85.20
10089;DHT22;51898;49.864;8.550;2023-04-24T05:42:46;10.00;84.80
10089;DHT22;51898;49.864;8.550;2023-04-24T05:45:48;10.00;83.10
10089;DHT22;51898;49.864;8.550;2023-04-24T05:48:49;10.00;82.90
10089;DHT22;51898;49.864;8.550;2023-04-24T05:51:51;9.90;83.20
10089;DHT22;51898;49.864;8.550;2023-04-24T05:54:53;10.00;82.50
10089;DHT22;51898;49.864;8.550;2023-04-24T05:57:55;10.10;81.60
10089;DHT22;51898;49.864;8.550;2023-04-24T06:00:56;10.30;81.20
10089;DHT22;51898;49.864;8.550;2023-04-24T06:03:59;10.40;79.40
10089;DHT22;51898;49.864;8.550;2023-04-24T06:07:02;10.40;78.90
10089;DHT22;51898;49.864;8.550;2023-04-24T06:10:04;10.40;78.10
10089;DHT22;51898;49.864;8.550;2023-04-24T06:13:06;10.30;78.60
10089;DHT22;51898;49.864;8.550;2023-04-24T06:16:08;10.30;77.80
10089;DHT22;51898;49.864;8.550;2023-04-24T06:19:10;10.20;77.70
10089;DHT22;51898;49.864;8.550;2023-04-24T06:22:11;10.30;78.00
10089;DHT22;51898;49.864;8.550;2023-04-24T06:25:13;10.40;78.00
10089;DHT22;51898;49.864;8.550;2023-04-24T06:28:15;10.60;77.40
10089;DHT22;51898;49.864;8.550;2023-04-24T06:31:16;10.70;77.60
10089;DHT22;51898;49.864;8.550;2023-04-24T06:34:18;10.80;76.80
10089;DHT22;51898;49.864;8.550;2023-04-24T06:37:20;10.90;76.70
10089;DHT22;51898;49.864;8.550;2023-04-24T06:40:22;11.00;76.80
10089;DHT22;51898;49.864;8.550;2023-04-24T06:43:23;11.10;75.80
10089;DHT22;51898;49.864;8.550;2023-04-24T06:46:25;11.20;76.20
10089;DHT22;51898;49.864;8.550;2023-04-24T06:49:29;11.20;76.10
10089;DHT22;51898;49.864;8.550;2023-04-24T06:52:30;11.30;76.60
10089;DHT22;51898;49.864;8.550;2023-04-24T06:55:35;11.20;75.10
10089;DHT22;51898;49.864;8.550;2023-04-24T06:58:37;11.10;76.30
10089;DHT22;51898;49.864;8.550;2023-04-24T07:01:39;11.00;77.10
10089;DHT22;51898;49.864;8.550;2023-04-24T07:04:40;11.20;76.00
10089;DHT22;51898;49.864;8.550;2023-04-24T07:07:43;11.40;75.50
10089;DHT22;51898;49.864;8.550;2023-04-24T07:10:46;11.70;74.70
10089;DHT22;51898;49.864;8.550;2023-04-24T07:13:47;12.10;73.50
10089;DHT22;51898;49.864;8.550;2023-04-24T07:16:49;12.40;71.50
10089;DHT22;51898;49.864;8.550;2023-04-24T07:19:51;12.30;70.50
10089;DHT22;51898;49.864;8.550;2023-04-24T07:22:53;12.20;69.40
10089;DHT22;51898;49.864;8.550;2023-04-24T07:25:55;12.30;67.80
10089;DHT22;51898;49.864;8.550;2023-04-24T07:28:57;12.40;66.50
10089;DHT22;51898;49.864;8.550;2023-04-24T07:31:58;12.40;66.80
10089;DHT22;51898;49.864;8.550;2023-04-24T07:35:04;12.30;66.10
10089;DHT22;51898;49.864;8.550;2023-04-24T07:38:06;12.20;65.40
10089;DHT22;51898;49.864;8.550;2023-04-24T07:41:07;12.00;65.20
10089;DHT22;51898;49.864;8.550;2023-04-24T07:44:09;11.80;65.70
10089;DHT22;51898;49.864;8.550;2023-04-24T07:47:11;11.90;66.00
10089;DHT22;51898;49.864;8.550;2023-04-24T07:50:15;12.00;67.80
10089;DHT22;51898;49.864;8.550;2023-04-24T07:53:17;12.20;65.70
10089;DHT22;51898;49.864;8.550;2023-04-24T07:56:19;12.40;63.90
10089;DHT22;51898;49.864;8.550;2023-04-24T07:59:20;12.10;63.70
10089;DHT22;51898;49.864;8.550;2023-04-24T08:02:22;11.80;62.20
10089;DHT22;51898;49.864;8.550;2023-04-24T08:05:28;11.70;63.90
10089;DHT22;51898;49.864;8.550;2023-04-24T08:08:30;11.90;65.20
10089;DHT22;51898;49.864;8.550;2023-04-24T08:11:32;12.30;65.40
10089;DHT22;51898;49.864;8.550;2023-04-24T08:14:34;12.40;62.40
10089;DHT22;51898;49.864;8.550;2023-04-24T08:17:36;12.50;62.30
10089;DHT22;51898;49.864;8.550;2023-04-24T08:20:38;12.20;62.50
10089;DHT22;51898;49.864;8.550;2023-04-24T08:23:40;12.10;62.60
10089;DHT22;51898;49.864;8.550;2023-04-24T08:26:42;12.00;64.80
10089;DHT22;51898;49.864;8.550;2023-04-24T08:29:44;12.00;64.40
10089;DHT22;51898;49.864;8.550;2023-04-24T08:32:45;12.10;63.20
10089;DHT22;51898;49.864;8.550;2023-04-24T08:35:47;12.30;62.40
10089;DHT22;51898;49.864;8.550;2023-04-24T08:38:49;12.40;62.30
10089;DHT22;51898;49.864;8.550;2023-04-24T08:41:52;12.60;62.60
10089;DHT22;51898;49.864;8.550;2023-04-24T08:44:54;12.80;62.40
10089;DHT22;51898;49.864;8.550;2023-04-24T08:47:57;13.10;61.60
10089;DHT22;51898;49.864;8.550;2023-04-24T08:50:59;12.90;61.80
10089;DHT22;51898;49.864;8.550;2023-04-24T08:54:02;12.80;61.20
10089;DHT22;51898;49.864;8.550;2023-04-24T08:57:07;12.80;61.00
10089;DHT22;51898;49.864;8.550;2023-04-24T09:00:09;12.80;62.20
10089;DHT22;51898;49.864;8.550;2023-04-24T09:03:16;13.00;61.30
10089;DHT22;51898;49.864;8.550;2023-04-24T09:06:19;12.90;61.20
10089;DHT22;51898;49.864;8.550;2023-04-24T09:09:24;12.70;62.10
10089;DHT22;51898;49.864;8.550;2023-04-24T09:12:26;12.70;61.70
10089;DHT22;51898;49.864;8.550;2023-04-24T09:15:27;12.60;61.10
10089;DHT22;51898;49.864;8.550;2023-04-24T09:18:30;12.50;61.70
10089;DHT22;51898;49.864;8.550;2023-04-24T09:21:33;12.40;61.50
10089;DHT22;51898;49.864;8.550;2023-04-24T09:24:35;12.40;62.80
10089;DHT22;51898;49.864;8.550;2023-04-24T09:27:41;12.50;61.50
10089;DHT22;51898;49.864;8.550;2023-04-24T09:30:44;12.50;62.10
10089;DHT22;51898;49.864;8.550;2023-04-24T09:33:58;12.60;62.50
10089;DHT22;51898;49.864;8.550;2023-04-24T09:37:02;12.50;61.10
10089;DHT22;51898;49.864;8.550;2023-04-24T09:40:21;12.40;62.00
10089;DHT22;51898;49.864;8.550;2023-04-24T09:43:26;12.60;62.50
10089;DHT22;51898;49.864;8.550;2023-04-24T09:46:32;12.70;61.90
10089;DHT22;51898;49.864;8.550;2023-04-24T09:49:34;12.70;62.90
10089;DHT22;51898;49.864;8.550;2023-04-24T09:52:47;12.70;62.10
10089;DHT22;51898;49.864;8.550;2023-04-24T09:55:49;12.70;63.50
10089;DHT22;51898;49.864;8.550;2023-04-24T09:58:51;12.60;63.40
10089;DHT22;51898;49.864;8.550;2023-04-24T10:01:53;12.70;62.70
10089;DHT22;51898;49.864;8.550;2023-04-24T10:04:56;12.90;62.20
10089;DHT22;51898;49.864;8.550;2023-04-24T10:08:08;12.90;61.90
10089;DHT22;51898;49.864;8.550;2023-04-24T10:11:10;12.90;61.70
10089;DHT22;51898;49.864;8.550;2023-04-24T10:14:18;12.70;63.10
10089;DHT22;51898;49.864;8.550;2023-04-24T10:17:21;12.70;62.80
10089;DHT22;51898;49.864;8.550;2023-04-24T10:20:25;12.50;64.20
10089;DHT22;51898;49.864;8.550;2023-04-24T10:23:28;12.30;63.80
10089;DHT22;51898;49.864;8.550;2023-04-24T10:26:30;12.10;64.60
10089;DHT22;51898;49.864;8.550;2023-04-24T10:29:33;12.00;64.90
10089;DHT22;51898;49.864;8.550;2023-04-24T10:32:37;12.10;65.30
10089;DHT22;51898;49.864;8.550;2023-04-24T10:35:44;12.10;64.80
10089;DHT22;51898;49.864;8.550;2023-04-24T10:38:46;12.20;64.50
10089;DHT22;51898;49.864;8.550;2023-04-24T10:41:50;12.60;64.70
10089;DHT22;51898;49.864;8.550;2023-04-24T10:44:51;13.30;63.10
10089;DHT22;51898;49.864;8.550;2023-04-24T10:48:06;13.70;62.00
10089;DHT22;51898;49.864;8.550;2023-04-24T10:51:12;13.90;61.40
10089;DHT22;51898;49.864;8.550;2023-04-24T10:54:34;14.00;60.10
10089;DHT22;51898;49.864;8.550;2023-04-24T10:57:36;13.80;59.70
10089;DHT22;51898;49.864;8.550;2023-04-24T11:00:41;13.40;58.80
10089;DHT22;51898;49.864;8.550;2023-04-24T11:03:53;13.00;61.30
10089;DHT22;51898;49.864;8.550;2023-04-24T11:06:57;12.80;62.30
10089;DHT22;51898;49.864;8.550;2023-04-24T11:09:59;12.60;62.80
10089;DHT22;51898;49.864;8.550;2023-04-24T11:13:02;12.30;64.20
10089;DHT22;51898;49.864;8.550;2023-04-24T11:19:26;11.60;72.50
10089;DHT22;51898;49.864;8.550;2023-04-24T11:22:29;11.30;75.00
10089;DHT22;51898;49.864;8.550;2023-04-24T11:25:35;11.10;78.10
10089;DHT22;51898;49.864;8.550;2023-04-24T11:28:37;11.20;81.80
10089;DHT22;51898;49.864;8.550;2023-04-24T11:31:45;11.10;83.80
10089;DHT22;51898;49.864;8.550;2023-04-24T11:34:57;11.00;84.90
10089;DHT22;51898;49.864;8.550;2023-04-24T11:37:59;11.00;85.20
10089;DHT22;51898;49.864;8.550;2023-04-24T11:41:24;10.90;85.10
10089;DHT22;51898;49.864;8.550;2023-04-24T11:44:27;11.00;84.70
10089;DHT22;51898;49.864;8.550;2023-04-24T11:47:30;10.90;84.50
10089;DHT22;51898;49.864;8.550;2023-04-24T11:50:32;10.80;85.50
10089;DHT22;51898;49.864;8.550;2023-04-24T11:53:36;10.70;85.30
10089;DHT22;51898;49.864;8.550;2023-04-24T11:56:38;10.60;85.60
10089;DHT22;51898;49.864;8.550;2023-04-24T11:59:40;10.60;86.70
10089;DHT22;51898;49.864;8.550;2023-04-24T12:02:42;10.50;85.80
10089;DHT22;51898;49.864;8.550;2023-04-24T12:05:44;10.50;86.70
10089;DHT22;51898;49.864;8.550;2023-04-24T12:08:47;10.50;85.10
10089;DHT22;51898;49.864;8.550;2023-04-24T12:11:53;10.70;84.10
10089;DHT22;51898;49.864;8.550;2023-04-24T12:14:57;10.80;85.20
10089;DHT22;51898;49.864;8.550;2023-04-24T12:18:00;11.00;82.20
10089;DHT22;51898;49.864;8.550;2023-04-24T12:21:24;11.40;81.00
10089;DHT22;51898;49.864;8.550;2023-04-24T12:24:28;11.80;84.00
10089;DHT22;51898;49.864;8.550;2023-04-24T12:27:31;12.20;78.70
10089;DHT22;51898;49.864;8.550;2023-04-24T12:30:43;12.50;78.10
10089;DHT22;51898;49.864;8.550;2023-04-24T12:33:46;12.90;77.80
10089;DHT22;51898;49.864;8.550;2023-04-24T12:36:48;13.50;75.30
10089;DHT22;51898;49.864;8.550;2023-04-24T12:40:09;13.90;70.60
10089;DHT22;51898;49.864;8.550;2023-04-24T12:43:14;13.80;65.90
10089;DHT22;51898;49.864;8.550;2023-04-24T12:46:16;13.70;69.00
10089;DHT22;51898;49.864;8.550;2023-04-24T12:49:21;13.60;66.60
10089;DHT22;51898;49.864;8.550;2023-04-24T12:52:23;13.70;66.00
10089;DHT22;51898;49.864;8.550;2023-04-24T12:55:25;13.90;64.90
10089;DHT22;51898;49.864;8.550;2023-04-24T12:58:27;14.10;65.10
10089;DHT22;51898;49.864;8.550;2023-04-24T13:01:28;14.00;67.20
10089;DHT22;51898;49.864;8.550;2023-04-24T13:04:30;14.10;61.80
10089;DHT22;51898;49.864;8.550;2023-04-24T13:07:32;14.10;63.40
10089;DHT22;51898;49.864;8.550;2023-04-24T13:10:34;13.80;61.50
10089;DHT22;51898;49.864;8.550;2023-04-24T13:13:36;13.80;62.20
10089;DHT22;51898;49.864;8.550;2023-04-24T13:16:38;14.00;63.00
10089;DHT22;51898;49.864;8.550;2023-04-24T13:19:41;14.00;60.90
10089;DHT22;51898;49.864;8.550;2023-04-24T13:22:44;14.00;60.00
10089;DHT22;51898;49.864;8.550;2023-04-24T13:25:49;14.00;61.40
10089;DHT22;51898;49.864;8.550;2023-04-24T13:28:50;14.30;61.90
10089;DHT22;51898;49.864;8.550;2023-04-24T13:31:53;14.30;57.80
10089;DHT22;51898;49.864;8.550;2023-04-24T13:34:58;14.00;58.70
10089;DHT22;51898;49.864;8.550;2023-04-24T13:38:00;13.90;58.90
10089;DHT22;51898;49.864;8.550;2023-04-24T13:41:03;13.80;59.20
10089;DHT22;51898;49.864;8.550;2023-04-24T13:44:05;13.70;60.30
10089;DHT22;51898;49.864;8.550;2023-04-24T13:47:07;13.60;59.00
10089;DHT22;51898;49.864;8.550;2023-04-24T13:50:09;13.50;59.40
10089;DHT22;51898;49.864;8.550;2023-04-24T13:53:11;13.60;61.60
10089;DHT22;51898;49.864;8.550;2023-04-24T13:56:12;13.50;61.40
10089;DHT22;51898;49.864;8.550;2023-04-24T13:59:15;13.50;61.60
10089;DHT22;51898;49.864;8.550;2023-04-24T14:02:17;13.60;58.70
10089;DHT22;51898;49.864;8.550;2023-04-24T14:05:18;13.70;58.30
10089;DHT22;51898;49.864;8.550;2023-04-24T14:08:22;13.90;58.70
10089;DHT22;51898;49.864;8.550;2023-04-24T14:11:24;13.90;56.90
10089;DHT22;51898;49.864;8.550;2023-04-24T14:14:25;13.70;57.90
10089;DHT22;51898;49.864;8.550;2023-04-24T14:17:28;13.70;58.30
10089;DHT22;51898;49.864;8.550;2023-04-24T14:20:29;13.60;58.60
10089;DHT22;51898;49.864;8.550;2023-04-24T14:23:31;13.40;60.20
10089;DHT22;51898;49.864;8.550;2023-04-24T14:26:33;13.30;59.10
10089;DHT22;51898;49.864;8.550;2023-04-24T14:29:35;13.20;59.20
10089;DHT22;51898;49.864;8.550;2023-04-24T14:32:38;13.20;57.90
10089;DHT22;51898;49.864;8.550;2023-04-24T14:35:40;13.10;56.60
10089;DHT22;51898;49.864;8.550;2023-04-24T14:38:43;13.20;58.00
10089;DHT22;51898;49.864;8.550;2023-04-24T14:41:45;13.20;58.30
10089;DHT22;51898;49.864;8.550;2023-04-24T14:44:47;13.40;58.70
10089;DHT22;51898;49.864;8.550;2023-04-24T14:47:48;13.50;57.70
10089;DHT22;51898;49.864;8.550;2023-04-24T14:50:50;13.50;56.70
10089;DHT22;51898;49.864;8.550;2023-04-24T14:53:52;13.40;57.10
10089;DHT22;51898;49.864;8.550;2023-04-24T14:56:54;13.40;57.70
10089;DHT22;51898;49.864;8.550;2023-04-24T14:59:58;13.50;59.40
10089;DHT22;51898;49.864;8.550;2023-04-24T15:03:00;13.50;58.70
10089;DHT22;51898;49.864;8.550;2023-04-24T15:06:03;13.50;58.40
10089;DHT22;51898;49.864;8.550;2023-04-24T15:09:05;13.70;59.50
10089;DHT22;51898;49.864;8.550;2023-04-24T15:12:06;13.70;58.40
10089;DHT22;51898;49.864;8.550;2023-04-24T15:15:09;13.60;57.50
10089;DHT22;51898;49.864;8.550;2023-04-24T15:18:10;13.80;57.10
10089;DHT22;51898;49.864;8.550;2023-04-24T15:21:13;14.20;56.10
10089;DHT22;51898;49.864;8.550;2023-04-24T15:24:15;14.60;54.80
10089;DHT22;51898;49.864;8.550;2023-04-24T15:27:16;15.00;55.90
10089;DHT22;51898;49.864;8.550;2023-04-24T15:30:18;15.10;55.60
10089;DHT22;51898;49.864;8.550;2023-04-24T15:33:20;15.10;54.10
10089;DHT22;51898;49.864;8.550;2023-04-24T15:36:22;15.30;53.60
10089;DHT22;51898;49.864;8.550;2023-04-24T15:39:24;15.30;52.60
10089;DHT22;51898;49.864;8.550;2023-04-24T15:42:26;15.20;53.30
10089;DHT22;51898;49.864;8.550;2023-04-24T15:45:28;15.00;53.10
10089;DHT22;51898;49.864;8.550;2023-04-24T15:48:30;15.10;53.10
10089;DHT22;51898;49.864;8.550;2023-04-24T15:51:32;15.30;52.20
10089;DHT22;51898;49.864;8.550;2023-04-24T15:54:34;15.40;54.50
10089;DHT22;51898;49.864;8.550;2023-04-24T15:57:36;15.50;53.50
10089;DHT22;51898;49.864;8.550;2023-04-24T16:00:37;15.80;52.90
10089;DHT22;51898;49.864;8.550;2023-04-24T16:03:39;15.80;53.70
10089;DHT22;51898;49.864;8.550;2023-04-24T16:06:41;15.70;54.20
10089;DHT22;51898;49.864;8.550;2023-04-24T16:09:43;15.40;54.20
10089;DHT22;51898;49.864;8.550;2023-04-24T16:12:45;14.90;54.90
10089;DHT22;51898;49.864;8.550;2023-04-24T16:15:46;14.40;56.10
10089;DHT22;51898;49.864;8.550;2023-04-24T16:18:48;14.10;56.40
10089;DHT22;51898;49.864;8.550;2023-04-24T16:21:51;14.00;57.30
10089;DHT22;51898;49.864;8.550;2023-04-24T16:24:54;13.80;57.50
10089;DHT22;51898;49.864;8.550;2023-04-24T16:27:57;13.60;57.90
10089;DHT22;51898;49.864;8.550;2023-04-24T16:30:59;13.50;59.00
10089;DHT22;51898;49.864;8.550;2023-04-24T16:34:00;13.50;60.20
10089;DHT22;51898;49.864;8.550;2023-04-24T16:37:02;13.40;60.20
10089;DHT22;51898;49.864;8.550;2023-04-24T16:40:05;13.40;61.10
10089;DHT22;51898;49.864;8.550;2023-04-24T16:43:11;13.40;62.40
10089;DHT22;51898;49.864;8.550;2023-04-24T16:46:12;13.80;61.60
10089;DHT22;51898;49.864;8.550;2023-04-24T16:49:14;14.90;58.70
10089;DHT22;51898;49.864;8.550;2023-04-24T16:52:16;15.50;57.20
10089;DHT22;51898;49.864;8.550;2023-04-24T16:55:17;15.20;57.00
10089;DHT22;51898;49.864;8.550;2023-04-24T16:58:19;14.80;58.60
10089;DHT22;51898;49.864;8.550;2023-04-24T17:01:21;14.30;60.40
10089;DHT22;51898;49.864;8.550;2023-04-24T17:04:22;13.90;61.20
10089;DHT22;51898;49.864;8.550;2023-04-24T17:07:24;13.60;62.10
10089;DHT22;51898;49.864;8.550;2023-04-24T17:10:26;13.30;63.30
10089;DHT22;51898;49.864;8.550;2023-04-24T17:13:29;13.10;63.80
10089;DHT22;51898;49.864;8.550;2023-04-24T17:16:31;12.90;65.10
10089;DHT22;51898;49.864;8.550;2023-04-24T17:19:32;12.50;69.30
10089;DHT22;51898;49.864;8.550;2023-04-24T17:22:34;11.90;73.60
10089;DHT22;51898;49.864;8.550;2023-04-24T17:25:36;11.50;77.10
10089;DHT22;51898;49.864;8.550;2023-04-24T17:28:37;11.20;78.20
10089;DHT22;51898;49.864;8.550;2023-04-24T17:31:39;11.10;79.40
10089;DHT22;51898;49.864;8.550;2023-04-24T17:34:41;11.10;79.70
10089;DHT22;51898;49.864;8.550;2023-04-24T17:37:43;11.00;79.60
10089;DHT22;51898;49.864;8.550;2023-04-24T17:40:45;10.50;83.50
10089;DHT22;51898;49.864;8.550;2023-04-24T17:43:46;10.10;85.40
10089;DHT22;51898;49.864;8.550;2023-04-24T17:46:48;9.80;86.70
10089;DHT22;51898;49.864;8.550;2023-04-24T17:49:50;9.70;88.40
10089;DHT22;51898;49.864;8.550;2023-04-24T17:52:52;9.60;89.40
10089;DHT22;51898;49.864;8.550;2023-04-24T17:55:54;9.50;90.30
10089;DHT22;51898;49.864;8.550;2023-04-24T17:58:59;9.40;90.50
10089;DHT22;51898;49.864;8.550;2023-04-24T18:02:01;9.40;89.80
10089;DHT22;51898;49.864;8.550;2023-04-24T18:05:03;9.30;87.70
10089;DHT22;51898;49.864;8.550;2023-04-24T18:08:05;9.30;87.30
10089;DHT22;51898;49.864;8.550;2023-04-24T18:11:06;9.30;86.40
10089;DHT22;51898;49.864;8.550;2023-04-24T18:14:08;9.40;86.40
10089;DHT22;51898;49.864;8.550;2023-04-24T18:17:10;9.30;88.00
10089;DHT22;51898;49.864;8.550;2023-04-24T18:20:14;9.30;89.40
10089;DHT22;51898;49.864;8.550;2023-04-24T18:23:16;9.30;90.20
10089;DHT22;51898;49.864;8.550;2023-04-24T18:26:18;9.30;90.30
10089;DHT22;51898;49.864;8.550;2023-04-24T18:29:19;9.30;90.30
10089;DHT22;51898;49.864;8.550;2023-04-24T18:32:22;9.40;90.00
10089;DHT22;51898;49.864;8.550;2023-04-24T18:35:23;9.40;90.00
10089;DHT22;51898;49.864;8.550;2023-04-24T18:38:25;9.40;90.50
10089;DHT22;51898;49.864;8.550;2023-04-24T18:41:26;9.50;90.10
10089;DHT22;51898;49.864;8.550;2023-04-24T18:44:28;9.60;90.00
10089;DHT22;51898;49.864;8.550;2023-04-24T18:47:30;9.50;89.80
10089;DHT22;51898;49.864;8.550;2023-04-24T18:50:32;9.60;89.30
10089;DHT22;51898;49.864;8.550;2023-04-24T18:53:34;9.60;89.20
10089;DHT22;51898;49.864;8.550;2023-04-24T18:56:36;9.60;89.20
10089;DHT22;51898;49.864;8.550;2023-04-24T18:59:37;9.60;88.70
10089;DHT22;51898;49.864;8.550;2023-04-24T19:02:39;9.60;88.70
10089;DHT22;51898;49.864;8.550;2023-04-24T19:05:42;9.60;88.70
10089;DHT22;51898;49.864;8.550;2023-04-24T19:08:43;9.70;88.00
10089;DHT22;51898;49.864;8.550;2023-04-24T19:11:45;9.70;87.80
10089;DHT22;51898;49.864;8.550;2023-04-24T19:14:48;9.70;87.70
10089;DHT22;51898;49.864;8.550;2023-04-24T19:17:51;9.70;86.40
10089;DHT22;51898;49.864;8.550;2023-04-24T19:20:53;9.70;86.00